EGOVEIWF

Guest
Details From EGOV - RAF Valley
To EIWF - Waterford
Flight Number -
Tags generated
Created
Modified
Stats Distance 113 nm / 208 km
Max Altitude 7,800 ft / 2,377 m
Waypoints 3
Social Downloads 0
Likes 0
Share VATSIM

Download

Looking for another format? Having issues loading an existing format? Contact us
Advertisement - Login to hide

Notes

Basic altitude profile: - Ascent Rate: 2500ft/min - Ascent Speed: 250kts - Cruise Altitude: 35000ft - Cruise Speed: 420kts - Descent Rate: 1500ft/min - Descent Speed: 250kts Options: - Use NATs: yes - Use PACOTS: yes - Use low airways: yes - Use high airways: yes

Route

EGOV BEPAN EIWF

ID Type Via Altitude Latitude Longitude Leg Dist Tot Dist Heading (true) Name
O EGOV APT - 0 ft / 0 m 53.24853˚ -4.53647˚ - 0 nm - RAF Valley
BEPAN FIX - 7,800 ft / 2,377 m 52.52667˚ -6.26361˚ 76 nm 76 nm 236° / 235° -
O EIWF APT - 0 ft / 0 m 52.18718˚ -7.08691˚ 36 nm 112 nm 236° / 236° Waterford

Altitude Profile

Advertisement - Login to hide

EGOV

Details ICAO EGOV (HLY)
Name RAF Valley
Region United Kingdom
Timezone Europe/London (UTC+0.0)
Stats Elevation 37 ft / 11 m (AMSL)
Location 53.248528° -4.536473°
Runways 3
Magnetic Variation 2.313° W

METAR

EGOV 111050Z 05001KT 9999 FEW035 04/M00 Q0990 BLACKBLU NOSIG

Decode

TAF

Not found

Departure Runways

ID Width Length Bearing (true) Bearing (mag) Surface Threshold Offset Overrun Length
01 157 ft / 48 m 5,470 ft / 1,667 m 6.15° 8.46° Asphalt 72 ft / 22 m 7 ft / 2 m
08 154 ft / 47 m 4,174 ft / 1,272 m 69.67° 71.98° Asphalt 702 ft / 214 m 0 ft / 0 m
14 154 ft / 47 m 7,551 ft / 2,302 m 130.54° 132.85° Asphalt 59 ft / 18 m 0 ft / 0 m
19 157 ft / 48 m 5,470 ft / 1,667 m 186.16° 188.47° Asphalt 213 ft / 65 m 0 ft / 0 m
26 154 ft / 47 m 4,174 ft / 1,272 m 249.69° 252.00° Asphalt 400 ft / 122 m 0 ft / 0 m
32 154 ft / 47 m 7,551 ft / 2,302 m 310.56° 312.87° Asphalt 0 ft / 0 m 627 ft / 191 m

EIWF

Details ICAO EIWF (WAT)
Name Waterford
Region Ireland
Timezone Europe/Dublin (UTC+0.0)
Stats Elevation 119 ft / 36 m (AMSL)
Location 52.187182° -7.086909°
Runways 1
Magnetic Variation 3.124° W

METAR

EIWF 111100Z 35007KT 320V030 9999 FEW008 SCT025 02/01 Q0994

Decode

TAF

Not found

Destination Runways

ID Width Length Bearing (true) Bearing (mag) Surface Threshold Offset Overrun Length
03 98 ft / 30 m 4,700 ft / 1,433 m 20.96° 24.08° Asphalt 295 ft / 90 m 0 ft / 0 m
21 98 ft / 30 m 4,700 ft / 1,433 m 200.96° 204.08° Asphalt 469 ft / 143 m 0 ft / 0 m

Approach Navaids

Runway Type Ident Frequency Range Bearing (true) Bearing (mag) Slope Elevation
21 Localiser IWD 110.90 MHz 18 nm / 33 km 201.10° 204.22° - 86 ft / 26 m (AMSL)
21 Glidescope IWD 110.90 MHz 10 nm / 19 km 200.96° 204.09° 3.20° 29 ft / 9 m (AMSL)
21 DME IWD 110.90 MHz 18 nm / 33 km - - - 29 ft / 9 m (AMSL)

Popular Alternatives